Terminal Aerodrome Forecast
Issued by NWS Pittsburgh, PA

Current Version | Previous Version | Graphics & Text | Print | Product List | Glossary On
Versions: 1 2 3 4 5 6 7 8 9 10 11 12 13 14 15 16 17 18 19 20 21 22 23 24 25 26 27 28 29
000
FTUS41 KPBZ 141122
TAFPIT
TAF
KPIT 141122Z 1412/1518 06003KT P6SM OVC050
      TEMPO 1412/1415 -FZRAPLSN
     FM141700 VRB03KT 3SM -FZRAPL BR OVC025
     FM141900 VRB03KT 3SM -RAPL BR OVC015
     FM142200 30003KT 5SM BR OVC015
     FM150000 30005KT P6SM OVC025
     FM150300 33005KT P6SM BKN040=

USA.gov is the U.S. government's official web portal to all federal, state and local government web resources and services.